Wood Dale, IL (60191)

7:17 PM CDT on August 29, 2015 (GMT -0500)
WDJH | | Change Station
CLOSE
Current Station
Personal Weather Station
Location: Wood Dale, IL
Elevation: 719 ft
Nearby Weather Stations

Elev 719 ft 41.98 °N, 87.98 °W | Updated 9 seconds ago

Light Rain
Light Rain Mist
67.9 °F
Feels Like 67.9 °F
N
0.0
Wind Variable Wind from NNE
Gusts 0.0 mph

Today
High -- | Low -- °F
--% Chance of Precip.
Yesterday
High -- | Low -- °F
Precip. -- in
6:14 AM 7:30 PM
Full, 100% visible
Pressure 30.00 in
Visibility 1.8 miles
Clouds Mostly Cloudy 1600 ft
Overcast 2400 ft
Dew Point 66 °F
Humidity 95%
Rainfall 0.66 in
Snow Depth Not available.
UV 0 out of 12
Pollen 1.10 out of 12
Air Quality Not available.
Flu Activity Not available.
METAR KORD 292351Z 36003KT 1 3/4SM -RA BR BKN016 OVC024 20/19 A3000 RMK AO2 SLP157 P0005 60008 T02000189 10211 20194 55002
Pressure 30.00 in
Visibility 1.8 miles
Clouds Mostly Cloudy 1600 ft
Overcast 2400 ft
Dew Point 66 °F
Humidity 95%
Rainfall 0.66 in
Snow Depth Not available.
UV 0 out of 12
Pollen 1.10 out of 12
Air Quality Not available.
Flu Activity Not available.
METAR KORD 292351Z 36003KT 1 3/4SM -RA BR BKN016 OVC024 20/19 A3000 RMK AO2 SLP157 P0005 60008 T02000189 10211 20194 55002

10-Day Weather Forecast

×

Almanac

Astronomy

Aug. 29, 2015 Rise Set
Actual Time
Civil Twilight
Nautical Twilight
Astronomical Twilight
Moon
Length of Visible Light
Length of Day
Tomorrow will be .
, % of the Moon is Illuminated

Today's Extremes

State Highs State Lows

Community

WunderPhotos

Upload Photos

1,850,790 photos uploaded!

WunderBlogs® & News

Nearby

Air Quality

  Air Quality AQ Index Pollutant
Not available.

Snow Depth

Station Depth Elevation

Earthquake Activity

City Distance Mag. Time & Date
Minimum magnitude displayed is 2.5.

Coastal Water Temperatures

Place Temperature

Stations

Nearby Weather Stations

Station Location Temp. Windchill Dew Point Humidity Wind Precip. Elev Updated Type